sensor_id;sensor_type;location;lat;lon;timestamp;temperature;humidity
13742;DHT22;8461;52.356;10.704;2023-09-18T00:00:21;19.30;99.90
13742;DHT22;8461;52.356;10.704;2023-09-18T00:02:48;19.20;99.90
13742;DHT22;8461;52.356;10.704;2023-09-18T00:05:13;19.20;99.90
13742;DHT22;8461;52.356;10.704;2023-09-18T00:07:44;19.30;99.90
13742;DHT22;8461;52.356;10.704;2023-09-18T00:10:11;19.20;99.90
13742;DHT22;8461;52.356;10.704;2023-09-18T00:12:37;19.20;99.90
13742;DHT22;8461;52.356;10.704;2023-09-18T00:15:03;19.10;99.90
13742;DHT22;8461;52.356;10.704;2023-09-18T00:17:28;19.20;99.90
13742;DHT22;8461;52.356;10.704;2023-09-18T00:19:54;19.00;99.90
13742;DHT22;8461;52.356;10.704;2023-09-18T00:22:20;19.00;99.90
13742;DHT22;8461;52.356;10.704;2023-09-18T00:24:46;18.90;99.90
13742;DHT22;8461;52.356;10.704;2023-09-18T00:27:13;18.80;99.90
13742;DHT22;8461;52.356;10.704;2023-09-18T00:29:39;18.90;99.90
13742;DHT22;8461;52.356;10.704;2023-09-18T00:32:05;18.90;99.90
13742;DHT22;8461;52.356;10.704;2023-09-18T00:34:31;18.80;99.90
13742;DHT22;8461;52.356;10.704;2023-09-18T00:36:59;18.80;99.90
13742;DHT22;8461;52.356;10.704;2023-09-18T00:39:26;18.80;99.90
13742;DHT22;8461;52.356;10.704;2023-09-18T00:41:51;18.70;99.90
13742;DHT22;8461;52.356;10.704;2023-09-18T00:44:20;18.80;99.90
13742;DHT22;8461;52.356;10.704;2023-09-18T00:46:47;18.60;99.90
13742;DHT22;8461;52.356;10.704;2023-09-18T00:49:14;18.70;99.90
13742;DHT22;8461;52.356;10.704;2023-09-18T00:51:40;18.70;99.90
13742;DHT22;8461;52.356;10.704;2023-09-18T00:54:06;18.70;99.90
13742;DHT22;8461;52.356;10.704;2023-09-18T00:56:33;18.60;99.90
13742;DHT22;8461;52.356;10.704;2023-09-18T00:58:59;18.60;99.90
13742;DHT22;8461;52.356;10.704;2023-09-18T01:01:25;18.70;99.90
13742;DHT22;8461;52.356;10.704;2023-09-18T01:03:51;18.60;99.90
13742;DHT22;8461;52.356;10.704;2023-09-18T01:06:18;18.60;99.90
13742;DHT22;8461;52.356;10.704;2023-09-18T01:08:45;18.50;99.90
13742;DHT22;8461;52.356;10.704;2023-09-18T01:11:30;18.60;99.90
13742;DHT22;8461;52.356;10.704;2023-09-18T01:14:02;18.60;99.90
13742;DHT22;8461;52.356;10.704;2023-09-18T01:16:36;18.50;99.90
13742;DHT22;8461;52.356;10.704;2023-09-18T01:19:04;18.50;99.90
13742;DHT22;8461;52.356;10.704;2023-09-18T01:21:30;18.40;99.90
13742;DHT22;8461;52.356;10.704;2023-09-18T01:23:56;18.50;99.90
13742;DHT22;8461;52.356;10.704;2023-09-18T01:26:21;18.50;99.90
13742;DHT22;8461;52.356;10.704;2023-09-18T01:28:46;18.40;99.90
13742;DHT22;8461;52.356;10.704;2023-09-18T01:31:12;18.50;99.90
13742;DHT22;8461;52.356;10.704;2023-09-18T01:33:38;18.40;99.90
13742;DHT22;8461;52.356;10.704;2023-09-18T01:36:07;18.30;99.90
13742;DHT22;8461;52.356;10.704;2023-09-18T01:38:34;18.40;99.90
13742;DHT22;8461;52.356;10.704;2023-09-18T01:41:01;18.30;99.90
13742;DHT22;8461;52.356;10.704;2023-09-18T01:43:26;18.40;99.90
13742;DHT22;8461;52.356;10.704;2023-09-18T01:45:52;18.30;99.90
13742;DHT22;8461;52.356;10.704;2023-09-18T01:48:18;18.30;99.90
13742;DHT22;8461;52.356;10.704;2023-09-18T01:50:44;18.30;99.90
13742;DHT22;8461;52.356;10.704;2023-09-18T01:53:09;18.20;99.90
13742;DHT22;8461;52.356;10.704;2023-09-18T01:55:35;18.30;99.90
13742;DHT22;8461;52.356;10.704;2023-09-18T01:58:00;18.20;99.90
13742;DHT22;8461;52.356;10.704;2023-09-18T02:00:26;18.30;99.90
13742;DHT22;8461;52.356;10.704;2023-09-18T02:02:51;18.30;99.90
13742;DHT22;8461;52.356;10.704;2023-09-18T02:05:17;18.30;99.90
13742;DHT22;8461;52.356;10.704;2023-09-18T02:07:42;18.30;99.90
13742;DHT22;8461;52.356;10.704;2023-09-18T02:10:08;18.20;99.90
13742;DHT22;8461;52.356;10.704;2023-09-18T02:12:34;18.20;99.90
13742;DHT22;8461;52.356;10.704;2023-09-18T02:14:59;18.20;99.90
13742;DHT22;8461;52.356;10.704;2023-09-18T02:17:29;18.20;99.90
13742;DHT22;8461;52.356;10.704;2023-09-18T02:19:55;18.10;99.90
13742;DHT22;8461;52.356;10.704;2023-09-18T02:22:20;18.10;99.90
13742;DHT22;8461;52.356;10.704;2023-09-18T02:24:46;18.00;99.90
13742;DHT22;8461;52.356;10.704;2023-09-18T02:27:11;18.10;99.90
13742;DHT22;8461;52.356;10.704;2023-09-18T02:29:37;18.00;99.90
13742;DHT22;8461;52.356;10.704;2023-09-18T02:32:03;18.00;99.90
13742;DHT22;8461;52.356;10.704;2023-09-18T02:34:28;18.00;99.90
13742;DHT22;8461;52.356;10.704;2023-09-18T02:36:54;17.90;99.90
13742;DHT22;8461;52.356;10.704;2023-09-18T02:39:20;18.00;99.90
13742;DHT22;8461;52.356;10.704;2023-09-18T02:41:46;18.20;99.90
13742;DHT22;8461;52.356;10.704;2023-09-18T02:44:12;18.20;99.90
13742;DHT22;8461;52.356;10.704;2023-09-18T02:46:39;18.10;99.90
13742;DHT22;8461;52.356;10.704;2023-09-18T02:49:05;18.10;99.90
13742;DHT22;8461;52.356;10.704;2023-09-18T02:51:31;18.10;99.90
13742;DHT22;8461;52.356;10.704;2023-09-18T02:53:59;18.00;99.90
13742;DHT22;8461;52.356;10.704;2023-09-18T02:56:25;18.00;99.90
13742;DHT22;8461;52.356;10.704;2023-09-18T02:58:50;18.10;99.90
13742;DHT22;8461;52.356;10.704;2023-09-18T03:01:16;17.90;99.90
13742;DHT22;8461;52.356;10.704;2023-09-18T03:03:41;17.90;99.90
13742;DHT22;8461;52.356;10.704;2023-09-18T03:06:07;18.00;99.90
13742;DHT22;8461;52.356;10.704;2023-09-18T03:08:33;18.20;99.90
13742;DHT22;8461;52.356;10.704;2023-09-18T03:10:59;18.00;99.90
13742;DHT22;8461;52.356;10.704;2023-09-18T03:13:27;18.00;99.90
13742;DHT22;8461;52.356;10.704;2023-09-18T03:15:53;18.10;99.90
13742;DHT22;8461;52.356;10.704;2023-09-18T03:18:18;18.00;99.90
13742;DHT22;8461;52.356;10.704;2023-09-18T03:20:44;18.00;99.90
13742;DHT22;8461;52.356;10.704;2023-09-18T03:23:09;18.00;99.90
13742;DHT22;8461;52.356;10.704;2023-09-18T03:25:35;18.00;99.90
13742;DHT22;8461;52.356;10.704;2023-09-18T03:28:02;18.10;99.90
13742;DHT22;8461;52.356;10.704;2023-09-18T03:30:28;18.00;99.90
13742;DHT22;8461;52.356;10.704;2023-09-18T03:32:54;18.10;99.90
13742;DHT22;8461;52.356;10.704;2023-09-18T03:35:20;17.80;99.90
13742;DHT22;8461;52.356;10.704;2023-09-18T03:37:50;17.90;99.90
13742;DHT22;8461;52.356;10.704;2023-09-18T03:40:17;18.00;99.90
13742;DHT22;8461;52.356;10.704;2023-09-18T03:42:43;18.00;99.90
13742;DHT22;8461;52.356;10.704;2023-09-18T03:45:09;18.00;99.90
13742;DHT22;8461;52.356;10.704;2023-09-18T03:47:37;18.10;99.90
13742;DHT22;8461;52.356;10.704;2023-09-18T03:50:05;18.20;99.90
13742;DHT22;8461;52.356;10.704;2023-09-18T03:52:31;18.30;99.90
13742;DHT22;8461;52.356;10.704;2023-09-18T03:54:56;18.40;99.90
13742;DHT22;8461;52.356;10.704;2023-09-18T03:57:22;18.30;99.90
13742;DHT22;8461;52.356;10.704;2023-09-18T03:59:48;18.30;99.90
13742;DHT22;8461;52.356;10.704;2023-09-18T04:02:13;18.50;99.90
13742;DHT22;8461;52.356;10.704;2023-09-18T04:04:39;18.50;99.90
13742;DHT22;8461;52.356;10.704;2023-09-18T04:07:08;18.40;99.90
13742;DHT22;8461;52.356;10.704;2023-09-18T04:09:33;18.50;99.90
13742;DHT22;8461;52.356;10.704;2023-09-18T04:12:00;18.50;99.90
13742;DHT22;8461;52.356;10.704;2023-09-18T04:14:26;18.40;99.90
13742;DHT22;8461;52.356;10.704;2023-09-18T04:16:51;18.50;99.90
13742;DHT22;8461;52.356;10.704;2023-09-18T04:19:17;18.50;99.90
13742;DHT22;8461;52.356;10.704;2023-09-18T04:21:42;18.40;99.90
13742;DHT22;8461;52.356;10.704;2023-09-18T04:24:08;18.40;99.90
13742;DHT22;8461;52.356;10.704;2023-09-18T04:26:33;18.40;99.90
13742;DHT22;8461;52.356;10.704;2023-09-18T04:29:00;18.40;99.90
13742;DHT22;8461;52.356;10.704;2023-09-18T04:31:26;18.50;99.90
13742;DHT22;8461;52.356;10.704;2023-09-18T04:33:53;18.60;99.90
13742;DHT22;8461;52.356;10.704;2023-09-18T04:36:18;18.50;99.90
13742;DHT22;8461;52.356;10.704;2023-09-18T04:38:44;18.50;99.90
13742;DHT22;8461;52.356;10.704;2023-09-18T04:41:09;18.60;99.90
13742;DHT22;8461;52.356;10.704;2023-09-18T04:43:38;18.60;99.90
13742;DHT22;8461;52.356;10.704;2023-09-18T04:46:04;18.50;99.90
13742;DHT22;8461;52.356;10.704;2023-09-18T04:48:30;18.50;99.90
13742;DHT22;8461;52.356;10.704;2023-09-18T04:50:57;18.60;99.90
13742;DHT22;8461;52.356;10.704;2023-09-18T04:53:22;18.50;99.90
13742;DHT22;8461;52.356;10.704;2023-09-18T04:55:48;18.50;99.90
13742;DHT22;8461;52.356;10.704;2023-09-18T04:58:15;18.50;99.90
13742;DHT22;8461;52.356;10.704;2023-09-18T05:00:41;18.40;99.90
13742;DHT22;8461;52.356;10.704;2023-09-18T05:03:07;18.30;99.90
13742;DHT22;8461;52.356;10.704;2023-09-18T05:05:34;18.40;99.90
13742;DHT22;8461;52.356;10.704;2023-09-18T05:08:06;18.40;99.90
13742;DHT22;8461;52.356;10.704;2023-09-18T05:10:36;18.40;99.90
13742;DHT22;8461;52.356;10.704;2023-09-18T05:13:03;18.40;99.90
13742;DHT22;8461;52.356;10.704;2023-09-18T05:15:29;18.50;99.90
13742;DHT22;8461;52.356;10.704;2023-09-18T05:17:55;18.50;99.90
13742;DHT22;8461;52.356;10.704;2023-09-18T05:20:24;18.60;99.90
13742;DHT22;8461;52.356;10.704;2023-09-18T05:22:53;18.60;99.90
13742;DHT22;8461;52.356;10.704;2023-09-18T05:25:19;18.70;99.90
13742;DHT22;8461;52.356;10.704;2023-09-18T05:27:47;18.70;99.90
13742;DHT22;8461;52.356;10.704;2023-09-18T05:30:19;18.60;99.90
13742;DHT22;8461;52.356;10.704;2023-09-18T05:32:47;18.60;99.90
13742;DHT22;8461;52.356;10.704;2023-09-18T05:35:14;18.60;99.90
13742;DHT22;8461;52.356;10.704;2023-09-18T05:37:40;18.70;99.90
13742;DHT22;8461;52.356;10.704;2023-09-18T05:40:07;18.80;99.90
13742;DHT22;8461;52.356;10.704;2023-09-18T05:42:40;18.70;99.90
13742;DHT22;8461;52.356;10.704;2023-09-18T05:45:09;18.80;99.90
13742;DHT22;8461;52.356;10.704;2023-09-18T05:47:35;18.70;99.90
13742;DHT22;8461;52.356;10.704;2023-09-18T05:50:02;18.80;99.90
13742;DHT22;8461;52.356;10.704;2023-09-18T05:52:29;18.80;99.90
13742;DHT22;8461;52.356;10.704;2023-09-18T05:54:54;18.70;99.90
13742;DHT22;8461;52.356;10.704;2023-09-18T05:57:20;18.90;99.90
13742;DHT22;8461;52.356;10.704;2023-09-18T05:59:45;18.80;99.90
13742;DHT22;8461;52.356;10.704;2023-09-18T06:02:11;19.00;99.90
13742;DHT22;8461;52.356;10.704;2023-09-18T06:04:37;19.00;99.90
13742;DHT22;8461;52.356;10.704;2023-09-18T06:07:03;19.10;99.90
13742;DHT22;8461;52.356;10.704;2023-09-18T06:09:29;19.10;99.90
13742;DHT22;8461;52.356;10.704;2023-09-18T06:11:55;19.40;99.90
13742;DHT22;8461;52.356;10.704;2023-09-18T06:14:20;19.40;99.90
13742;DHT22;8461;52.356;10.704;2023-09-18T06:16:46;19.40;99.90
13742;DHT22;8461;52.356;10.704;2023-09-18T06:19:11;19.70;99.90
13742;DHT22;8461;52.356;10.704;2023-09-18T06:21:37;19.80;99.90
13742;DHT22;8461;52.356;10.704;2023-09-18T06:24:02;19.90;99.90
13742;DHT22;8461;52.356;10.704;2023-09-18T06:26:28;20.20;99.90
13742;DHT22;8461;52.356;10.704;2023-09-18T06:28:53;20.20;99.90
13742;DHT22;8461;52.356;10.704;2023-09-18T06:31:20;20.30;99.90
13742;DHT22;8461;52.356;10.704;2023-09-18T06:33:46;20.30;99.90
13742;DHT22;8461;52.356;10.704;2023-09-18T06:36:13;20.40;99.90
13742;DHT22;8461;52.356;10.704;2023-09-18T06:38:38;20.40;99.90
13742;DHT22;8461;52.356;10.704;2023-09-18T06:41:04;20.40;99.90
13742;DHT22;8461;52.356;10.704;2023-09-18T06:43:29;20.50;99.90
13742;DHT22;8461;52.356;10.704;2023-09-18T06:45:55;20.60;99.90
13742;DHT22;8461;52.356;10.704;2023-09-18T06:48:23;20.80;99.90
13742;DHT22;8461;52.356;10.704;2023-09-18T06:50:49;20.80;99.90
13742;DHT22;8461;52.356;10.704;2023-09-18T06:53:14;20.80;99.90
13742;DHT22;8461;52.356;10.704;2023-09-18T06:55:40;20.80;99.90
13742;DHT22;8461;52.356;10.704;2023-09-18T06:58:05;20.80;99.90
13742;DHT22;8461;52.356;10.704;2023-09-18T07:00:31;20.80;99.90
13742;DHT22;8461;52.356;10.704;2023-09-18T07:02:56;20.80;99.90
13742;DHT22;8461;52.356;10.704;2023-09-18T07:05:22;20.80;99.90
13742;DHT22;8461;52.356;10.704;2023-09-18T07:07:48;20.70;99.90
13742;DHT22;8461;52.356;10.704;2023-09-18T07:10:14;20.80;99.90
13742;DHT22;8461;52.356;10.704;2023-09-18T07:12:39;20.90;99.90
13742;DHT22;8461;52.356;10.704;2023-09-18T07:15:05;20.80;99.90
13742;DHT22;8461;52.356;10.704;2023-09-18T07:17:32;20.80;99.90
13742;DHT22;8461;52.356;10.704;2023-09-18T07:19:57;20.80;99.90
13742;DHT22;8461;52.356;10.704;2023-09-18T07:22:23;20.70;99.90
13742;DHT22;8461;52.356;10.704;2023-09-18T07:24:49;20.70;99.90
13742;DHT22;8461;52.356;10.704;2023-09-18T07:27:14;20.70;99.90
13742;DHT22;8461;52.356;10.704;2023-09-18T07:29:40;21.00;99.90
13742;DHT22;8461;52.356;10.704;2023-09-18T07:32:05;20.60;99.90
13742;DHT22;8461;52.356;10.704;2023-09-18T07:34:31;20.70;99.90
13742;DHT22;8461;52.356;10.704;2023-09-18T07:36:57;20.70;99.90
13742;DHT22;8461;52.356;10.704;2023-09-18T07:39:22;20.60;99.90
13742;DHT22;8461;52.356;10.704;2023-09-18T07:41:48;20.70;99.90
13742;DHT22;8461;52.356;10.704;2023-09-18T07:44:19;20.70;99.90
13742;DHT22;8461;52.356;10.704;2023-09-18T07:46:46;20.60;99.90
13742;DHT22;8461;52.356;10.704;2023-09-18T07:49:11;20.50;99.90
13742;DHT22;8461;52.356;10.704;2023-09-18T07:51:37;20.50;99.90
13742;DHT22;8461;52.356;10.704;2023-09-18T07:54:03;20.60;99.90
13742;DHT22;8461;52.356;10.704;2023-09-18T07:56:29;20.50;99.90
13742;DHT22;8461;52.356;10.704;2023-09-18T07:58:56;20.50;99.90
13742;DHT22;8461;52.356;10.704;2023-09-18T08:01:22;20.50;99.90
13742;DHT22;8461;52.356;10.704;2023-09-18T08:03:48;20.60;99.90
13742;DHT22;8461;52.356;10.704;2023-09-18T08:06:14;20.70;99.90
13742;DHT22;8461;52.356;10.704;2023-09-18T08:08:44;20.60;99.90
13742;DHT22;8461;52.356;10.704;2023-09-18T08:11:09;20.70;99.90
13742;DHT22;8461;52.356;10.704;2023-09-18T08:13:35;20.80;99.90
13742;DHT22;8461;52.356;10.704;2023-09-18T08:16:01;20.90;99.90
13742;DHT22;8461;52.356;10.704;2023-09-18T08:18:27;21.10;99.90
13742;DHT22;8461;52.356;10.704;2023-09-18T08:20:53;21.10;99.90
13742;DHT22;8461;52.356;10.704;2023-09-18T08:23:19;21.30;99.90
13742;DHT22;8461;52.356;10.704;2023-09-18T08:25:45;21.50;99.90
13742;DHT22;8461;52.356;10.704;2023-09-18T08:28:12;21.60;99.90
13742;DHT22;8461;52.356;10.704;2023-09-18T08:30:40;21.70;99.90
13742;DHT22;8461;52.356;10.704;2023-09-18T08:33:06;21.80;99.90
13742;DHT22;8461;52.356;10.704;2023-09-18T08:35:31;21.70;99.90
13742;DHT22;8461;52.356;10.704;2023-09-18T08:37:57;21.80;99.90
13742;DHT22;8461;52.356;10.704;2023-09-18T08:40:23;21.80;99.90
13742;DHT22;8461;52.356;10.704;2023-09-18T08:42:52;21.80;99.90
13742;DHT22;8461;52.356;10.704;2023-09-18T08:45:35;21.90;99.90
13742;DHT22;8461;52.356;10.704;2023-09-18T08:48:03;22.00;99.90
13742;DHT22;8461;52.356;10.704;2023-09-18T08:50:29;22.10;99.90
13742;DHT22;8461;52.356;10.704;2023-09-18T08:52:55;22.20;99.90
13742;DHT22;8461;52.356;10.704;2023-09-18T08:55:21;22.20;99.90
13742;DHT22;8461;52.356;10.704;2023-09-18T08:57:49;22.20;99.90
13742;DHT22;8461;52.356;10.704;2023-09-18T09:00:14;22.40;99.90
13742;DHT22;8461;52.356;10.704;2023-09-18T09:02:43;22.40;99.90
13742;DHT22;8461;52.356;10.704;2023-09-18T09:05:09;22.50;99.90
13742;DHT22;8461;52.356;10.704;2023-09-18T09:07:35;22.50;99.90
13742;DHT22;8461;52.356;10.704;2023-09-18T09:10:00;22.60;99.90
13742;DHT22;8461;52.356;10.704;2023-09-18T09:12:49;22.50;99.90
13742;DHT22;8461;52.356;10.704;2023-09-18T09:15:15;22.50;99.90
13742;DHT22;8461;52.356;10.704;2023-09-18T09:17:42;22.50;99.90
13742;DHT22;8461;52.356;10.704;2023-09-18T09:20:09;22.50;99.90
13742;DHT22;8461;52.356;10.704;2023-09-18T09:22:37;22.50;99.90
13742;DHT22;8461;52.356;10.704;2023-09-18T09:25:02;22.50;99.90
13742;DHT22;8461;52.356;10.704;2023-09-18T09:27:28;22.50;99.90
13742;DHT22;8461;52.356;10.704;2023-09-18T09:30:00;22.60;99.90
13742;DHT22;8461;52.356;10.704;2023-09-18T09:32:31;22.60;99.90
13742;DHT22;8461;52.356;10.704;2023-09-18T09:34:57;22.60;99.90
13742;DHT22;8461;52.356;10.704;2023-09-18T09:37:32;22.60;99.90
13742;DHT22;8461;52.356;10.704;2023-09-18T09:40:03;22.70;99.90
13742;DHT22;8461;52.356;10.704;2023-09-18T09:42:39;22.80;99.90
13742;DHT22;8461;52.356;10.704;2023-09-18T09:45:12;22.90;99.90
13742;DHT22;8461;52.356;10.704;2023-09-18T09:50:12;22.90;99.90
13742;DHT22;8461;52.356;10.704;2023-09-18T09:52:47;23.00;99.90
13742;DHT22;8461;52.356;10.704;2023-09-18T09:57:50;23.30;99.90
13742;DHT22;8461;52.356;10.704;2023-09-18T10:00:16;23.30;99.90
13742;DHT22;8461;52.356;10.704;2023-09-18T10:03:01;23.30;99.90
13742;DHT22;8461;52.356;10.704;2023-09-18T10:05:34;23.20;99.90
13742;DHT22;8461;52.356;10.704;2023-09-18T10:08:04;23.20;99.90
13742;DHT22;8461;52.356;10.704;2023-09-18T10:10:40;23.10;99.90
13742;DHT22;8461;52.356;10.704;2023-09-18T10:13:20;23.10;99.90
13742;DHT22;8461;52.356;10.704;2023-09-18T10:15:50;23.10;99.90
13742;DHT22;8461;52.356;10.704;2023-09-18T10:21:19;23.00;99.90
13742;DHT22;8461;52.356;10.704;2023-09-18T10:24:06;22.90;99.90
13742;DHT22;8461;52.356;10.704;2023-09-18T10:26:37;22.90;99.90
13742;DHT22;8461;52.356;10.704;2023-09-18T10:29:09;22.90;99.90
13742;DHT22;8461;52.356;10.704;2023-09-18T10:31:38;22.90;99.90
13742;DHT22;8461;52.356;10.704;2023-09-18T10:34:06;23.10;99.90
13742;DHT22;8461;52.356;10.704;2023-09-18T10:36:34;23.20;99.90
13742;DHT22;8461;52.356;10.704;2023-09-18T10:39:00;23.10;99.90
13742;DHT22;8461;52.356;10.704;2023-09-18T10:41:26;23.10;99.90
13742;DHT22;8461;52.356;10.704;2023-09-18T10:43:56;23.10;99.90
13742;DHT22;8461;52.356;10.704;2023-09-18T10:46:25;23.00;99.90
13742;DHT22;8461;52.356;10.704;2023-09-18T10:48:51;23.00;99.90
13742;DHT22;8461;52.356;10.704;2023-09-18T10:51:24;22.90;99.90
13742;DHT22;8461;52.356;10.704;2023-09-18T10:53:50;22.90;99.90
13742;DHT22;8461;52.356;10.704;2023-09-18T10:56:19;22.90;99.90
13742;DHT22;8461;52.356;10.704;2023-09-18T10:58:45;23.00;99.90
13742;DHT22;8461;52.356;10.704;2023-09-18T11:01:12;23.00;99.90
13742;DHT22;8461;52.356;10.704;2023-09-18T11:03:38;23.00;99.90
13742;DHT22;8461;52.356;10.704;2023-09-18T11:06:10;23.00;99.90
13742;DHT22;8461;52.356;10.704;2023-09-18T11:08:49;23.00;99.90
13742;DHT22;8461;52.356;10.704;2023-09-18T11:11:18;23.00;99.90
13742;DHT22;8461;52.356;10.704;2023-09-18T11:13:48;23.10;99.90
13742;DHT22;8461;52.356;10.704;2023-09-18T11:21:25;23.20;99.90
13742;DHT22;8461;52.356;10.704;2023-09-18T11:26:34;23.40;99.90
13742;DHT22;8461;52.356;10.704;2023-09-18T11:29:05;23.40;99.90
13742;DHT22;8461;52.356;10.704;2023-09-18T11:31:53;23.40;99.90
13742;DHT22;8461;52.356;10.704;2023-09-18T11:36:52;23.60;99.90
13742;DHT22;8461;52.356;10.704;2023-09-18T11:39:37;23.60;99.90
13742;DHT22;8461;52.356;10.704;2023-09-18T11:42:17;23.60;99.90
13742;DHT22;8461;52.356;10.704;2023-09-18T11:44:44;23.70;99.90
13742;DHT22;8461;52.356;10.704;2023-09-18T11:47:17;23.70;99.90
13742;DHT22;8461;52.356;10.704;2023-09-18T11:49:52;23.90;99.90
13742;DHT22;8461;52.356;10.704;2023-09-18T11:52:20;24.00;99.90
13742;DHT22;8461;52.356;10.704;2023-09-18T11:54:47;24.10;99.90
13742;DHT22;8461;52.356;10.704;2023-09-18T11:57:13;24.10;99.90
13742;DHT22;8461;52.356;10.704;2023-09-18T11:59:41;24.10;99.90
13742;DHT22;8461;52.356;10.704;2023-09-18T12:02:08;24.00;99.90
13742;DHT22;8461;52.356;10.704;2023-09-18T12:04:35;23.90;99.90
13742;DHT22;8461;52.356;10.704;2023-09-18T12:07:04;23.90;99.90
13742;DHT22;8461;52.356;10.704;2023-09-18T12:09:31;23.80;99.90
13742;DHT22;8461;52.356;10.704;2023-09-18T12:12:00;23.90;99.90
13742;DHT22;8461;52.356;10.704;2023-09-18T12:14:31;23.90;99.90
13742;DHT22;8461;52.356;10.704;2023-09-18T12:17:01;24.00;99.90
13742;DHT22;8461;52.356;10.704;2023-09-18T12:19:28;23.90;99.90
13742;DHT22;8461;52.356;10.704;2023-09-18T12:21:54;23.90;99.90
13742;DHT22;8461;52.356;10.704;2023-09-18T12:24:24;23.90;99.90
13742;DHT22;8461;52.356;10.704;2023-09-18T12:26:51;23.80;99.90
13742;DHT22;8461;52.356;10.704;2023-09-18T12:29:16;23.70;99.90
13742;DHT22;8461;52.356;10.704;2023-09-18T12:31:42;23.70;99.90
13742;DHT22;8461;52.356;10.704;2023-09-18T12:34:18;23.70;99.90
13742;DHT22;8461;52.356;10.704;2023-09-18T12:36:44;23.80;99.90
13742;DHT22;8461;52.356;10.704;2023-09-18T12:39:16;24.00;99.90
13742;DHT22;8461;52.356;10.704;2023-09-18T12:41:46;24.10;99.90
13742;DHT22;8461;52.356;10.704;2023-09-18T12:44:12;24.20;99.90
13742;DHT22;8461;52.356;10.704;2023-09-18T12:46:40;24.10;99.90
13742;DHT22;8461;52.356;10.704;2023-09-18T12:49:17;24.00;99.90
13742;DHT22;8461;52.356;10.704;2023-09-18T12:51:43;23.90;99.90
13742;DHT22;8461;52.356;10.704;2023-09-18T12:54:09;23.70;99.90
13742;DHT22;8461;52.356;10.704;2023-09-18T12:56:42;23.70;99.90
13742;DHT22;8461;52.356;10.704;2023-09-18T12:59:09;23.80;99.90
13742;DHT22;8461;52.356;10.704;2023-09-18T13:01:34;23.70;99.90
13742;DHT22;8461;52.356;10.704;2023-09-18T13:04:00;23.70;99.90
13742;DHT22;8461;52.356;10.704;2023-09-18T13:06:31;23.70;99.90
13742;DHT22;8461;52.356;10.704;2023-09-18T13:09:15;23.70;99.90
13742;DHT22;8461;52.356;10.704;2023-09-18T13:11:56;23.80;99.90
13742;DHT22;8461;52.356;10.704;2023-09-18T13:14:23;23.70;99.90
13742;DHT22;8461;52.356;10.704;2023-09-18T13:16:48;23.60;99.90
13742;DHT22;8461;52.356;10.704;2023-09-18T13:19:14;23.60;99.90
13742;DHT22;8461;52.356;10.704;2023-09-18T13:21:47;23.60;99.90
13742;DHT22;8461;52.356;10.704;2023-09-18T13:24:33;23.60;99.90
13742;DHT22;8461;52.356;10.704;2023-09-18T13:26:58;23.60;99.90
13742;DHT22;8461;52.356;10.704;2023-09-18T13:29:27;23.60;99.90
13742;DHT22;8461;52.356;10.704;2023-09-18T13:31:52;23.50;99.90
13742;DHT22;8461;52.356;10.704;2023-09-18T13:34:18;23.50;99.90
13742;DHT22;8461;52.356;10.704;2023-09-18T13:36:45;23.50;99.90
13742;DHT22;8461;52.356;10.704;2023-09-18T13:39:11;23.50;99.90
13742;DHT22;8461;52.356;10.704;2023-09-18T13:41:37;23.40;99.90
13742;DHT22;8461;52.356;10.704;2023-09-18T13:44:03;23.40;99.90
13742;DHT22;8461;52.356;10.704;2023-09-18T13:46:29;23.40;99.90
13742;DHT22;8461;52.356;10.704;2023-09-18T13:48:55;23.30;99.90
13742;DHT22;8461;52.356;10.704;2023-09-18T13:51:20;23.30;99.90
13742;DHT22;8461;52.356;10.704;2023-09-18T13:53:46;23.30;99.90
13742;DHT22;8461;52.356;10.704;2023-09-18T13:56:13;23.20;99.90
13742;DHT22;8461;52.356;10.704;2023-09-18T13:58:38;23.20;99.90
13742;DHT22;8461;52.356;10.704;2023-09-18T14:01:06;23.20;99.90
13742;DHT22;8461;52.356;10.704;2023-09-18T14:03:33;23.30;99.90
13742;DHT22;8461;52.356;10.704;2023-09-18T14:05:58;23.30;99.90
13742;DHT22;8461;52.356;10.704;2023-09-18T14:08:25;23.20;99.90
13742;DHT22;8461;52.356;10.704;2023-09-18T14:10:50;23.20;99.90
13742;DHT22;8461;52.356;10.704;2023-09-18T14:13:16;23.20;99.90
13742;DHT22;8461;52.356;10.704;2023-09-18T14:15:42;23.10;99.90
13742;DHT22;8461;52.356;10.704;2023-09-18T14:18:08;23.20;99.90
13742;DHT22;8461;52.356;10.704;2023-09-18T14:20:34;23.20;99.90
13742;DHT22;8461;52.356;10.704;2023-09-18T14:22:59;23.10;99.90
13742;DHT22;8461;52.356;10.704;2023-09-18T14:25:25;23.10;99.90
13742;DHT22;8461;52.356;10.704;2023-09-18T14:27:50;23.20;99.90
13742;DHT22;8461;52.356;10.704;2023-09-18T14:30:16;23.10;99.90
13742;DHT22;8461;52.356;10.704;2023-09-18T14:32:44;23.10;99.90
13742;DHT22;8461;52.356;10.704;2023-09-18T14:35:09;23.10;99.90
13742;DHT22;8461;52.356;10.704;2023-09-18T14:37:36;23.00;99.90
13742;DHT22;8461;52.356;10.704;2023-09-18T14:40:02;23.00;99.90
13742;DHT22;8461;52.356;10.704;2023-09-18T14:42:28;23.00;99.90
13742;DHT22;8461;52.356;10.704;2023-09-18T14:44:53;22.90;99.90
13742;DHT22;8461;52.356;10.704;2023-09-18T14:47:19;22.90;99.90
13742;DHT22;8461;52.356;10.704;2023-09-18T14:49:44;22.80;99.90
13742;DHT22;8461;52.356;10.704;2023-09-18T14:52:12;22.80;99.90
13742;DHT22;8461;52.356;10.704;2023-09-18T14:54:38;22.80;99.90
13742;DHT22;8461;52.356;10.704;2023-09-18T14:57:05;22.80;99.90
13742;DHT22;8461;52.356;10.704;2023-09-18T14:59:31;22.70;99.90
13742;DHT22;8461;52.356;10.704;2023-09-18T15:01:56;22.70;99.90
13742;DHT22;8461;52.356;10.704;2023-09-18T15:04:22;22.80;99.90
13742;DHT22;8461;52.356;10.704;2023-09-18T15:06:48;22.80;99.90
13742;DHT22;8461;52.356;10.704;2023-09-18T15:09:14;22.80;99.90
13742;DHT22;8461;52.356;10.704;2023-09-18T15:11:39;22.80;99.90
13742;DHT22;8461;52.356;10.704;2023-09-18T15:14:05;22.60;99.90
13742;DHT22;8461;52.356;10.704;2023-09-18T15:16:30;22.60;99.90
13742;DHT22;8461;52.356;10.704;2023-09-18T15:18:57;22.60;99.90
13742;DHT22;8461;52.356;10.704;2023-09-18T15:21:27;22.60;99.90
13742;DHT22;8461;52.356;10.704;2023-09-18T15:23:53;22.60;99.90
13742;DHT22;8461;52.356;10.704;2023-09-18T15:26:18;22.60;99.90
13742;DHT22;8461;52.356;10.704;2023-09-18T15:28:44;22.60;99.90
13742;DHT22;8461;52.356;10.704;2023-09-18T15:31:09;22.60;99.90
13742;DHT22;8461;52.356;10.704;2023-09-18T15:33:35;22.50;99.90
13742;DHT22;8461;52.356;10.704;2023-09-18T15:36:00;22.50;99.90
13742;DHT22;8461;52.356;10.704;2023-09-18T15:38:27;22.50;99.90
13742;DHT22;8461;52.356;10.704;2023-09-18T15:40:53;22.50;99.90
13742;DHT22;8461;52.356;10.704;2023-09-18T15:43:18;22.50;99.90
13742;DHT22;8461;52.356;10.704;2023-09-18T15:45:44;22.50;99.90
13742;DHT22;8461;52.356;10.704;2023-09-18T15:48:10;22.50;99.90